Terminal Aerodrome Forecast
Issued by NWS

Current Version | Previous Version | Text Only | Print | Product List | Glossary On
Versions: 1 2 3 4 5 6 7 8 9 10 11 12 13 14 15 16
000
FTUS45 KRIW 020500
TAFCOD
TAF
KCOD 020534Z 0206/0306 26014G22KT P6SM SCT100
     FM022000 01014G22KT P6SM SCT020 BKN060
     FM022200 01016G26KT 6SM -SHRASN BKN020
     FM030200 36011KT P6SM VCSH BKN025
      AMD LTD TO CLD VIS AND WIND=

USA.gov is the U.S. government's official web portal to all federal, state and local government web resources and services.